Time;durP1;ratioP1;P1;durP2;ratioP2;P2;SDS_P1;SDS_P2;PMS_P1;PMS_P2;Temp;Humidity;BMP_temperature;BMP_pressure;BME280_temperature;BME280_humidity;BME280_pressure;Samples;Min_cycle;Max_cycle;Signal;HPM_P1;HPM_P2
2023/03/02 00:00:18;;;;;;;10.73;5.95;;;;;;;-1.02;100.00;102264.13;5249656;28;20167;-77
2023/03/02 00:02:49;;;;;;;10.35;5.75;;;;;;;-0.93;100.00;102254.47;5251750;28;20104;-77
2023/03/02 00:05:21;;;;;;;11.25;6.03;;;;;;;-1.00;100.00;102254.50;5251253;28;20480;-78
2023/03/02 00:07:53;;;;;;;10.38;5.78;;;;;;;-0.90;100.00;102252.69;5249699;28;20098;-78
2023/03/02 00:10:24;;;;;;;9.93;5.72;;;;;;;-0.92;100.00;102259.69;5253625;28;20032;-78
2023/03/02 00:12:57;;;;;;;13.45;6.57;;;;;;;-0.92;100.00;102257.06;5258726;28;20141;-78
2023/03/02 00:15:28;;;;;;;9.65;6.38;;;;;;;-1.03;100.00;102251.88;5254187;28;20480;-78
2023/03/02 00:17:59;;;;;;;10.82;6.65;;;;;;;-0.96;100.00;102257.09;5250508;28;20033;-78
2023/03/02 00:20:33;;;;;;;10.23;6.22;;;;;;;-0.97;100.00;102244.88;5253695;28;20544;-78
2023/03/02 00:23:04;;;;;;;10.63;5.78;;;;;;;-1.03;100.00;102249.25;5243978;28;20074;-78
2023/03/02 00:25:35;;;;;;;9.65;5.80;;;;;;;-1.04;100.00;102255.38;5249248;28;20063;-77
2023/03/02 00:28:07;;;;;;;11.63;5.88;;;;;;;-1.05;100.00;102243.16;5251943;28;20482;-78
2023/03/02 00:30:39;;;;;;;9.07;5.63;;;;;;;-1.03;100.00;102251.88;5249995;28;20041;-78
2023/03/02 00:33:10;;;;;;;12.77;6.00;;;;;;;-1.07;100.00;102260.63;5244730;28;20094;-78
2023/03/02 00:35:41;;;;;;;9.70;5.90;;;;;;;-1.07;100.00;102257.16;5252945;28;20036;-78
2023/03/02 00:38:13;;;;;;;11.98;5.97;;;;;;;-1.05;100.00;102258.03;5249385;28;20037;-78
2023/03/02 00:40:45;;;;;;;9.88;5.78;;;;;;;-1.06;100.00;102271.97;5250679;28;20024;-78
2023/03/02 00:43:16;;;;;;;9.75;5.95;;;;;;;-1.12;100.00;102262.41;5251728;28;20471;-78
2023/03/02 00:45:48;;;;;;;9.85;5.55;;;;;;;-1.11;100.00;102266.78;5247348;28;20094;-78
2023/03/02 00:48:19;;;;;;;12.50;6.18;;;;;;;-1.09;100.00;102264.16;5244287;28;20587;-78
2023/03/02 00:50:50;;;;;;;9.68;5.63;;;;;;;-1.12;100.00;102265.03;5249543;28;20720;-78
2023/03/02 00:53:22;;;;;;;12.63;6.20;;;;;;;-1.08;100.00;102250.16;5243117;28;20138;-78
2023/03/02 00:55:54;;;;;;;10.75;5.90;;;;;;;-1.06;100.00;102253.66;5251392;28;20047;-78
2023/03/02 00:58:29;;;;;;;12.73;6.32;;;;;;;-1.09;100.00;102254.53;5252667;28;20028;-79
2023/03/02 01:01:10;;;;;;;11.95;6.43;;;;;;;-1.04;100.00;102251.88;5251260;28;20546;-78
2023/03/02 01:03:41;;;;;;;10.68;5.80;;;;;;;-1.16;100.00;102250.22;5248739;28;20036;-78
2023/03/02 01:06:18;;;;;;;13.25;6.25;;;;;;;-1.14;100.00;102256.31;5252600;28;20321;-78
2023/03/02 01:08:49;;;;;;;10.80;5.97;;;;;;;-1.10;100.00;102254.53;5245864;28;21258;-78
2023/03/02 01:11:21;;;;;;;10.95;6.05;;;;;;;-1.11;100.00;102242.31;5244489;28;20021;-78
2023/03/02 01:13:52;;;;;;;11.90;5.65;;;;;;;-1.17;100.00;102243.22;5247168;28;20187;-78
2023/03/02 01:16:24;;;;;;;11.27;6.20;;;;;;;-1.17;100.00;102235.34;5247874;28;20025;-78
2023/03/02 01:18:55;;;;;;;11.48;6.32;;;;;;;-1.15;100.00;102240.59;5246874;28;20044;-78
2023/03/02 01:21:26;;;;;;;12.13;6.38;;;;;;;-1.14;100.00;102239.72;5248133;28;20486;-78
2023/03/02 01:23:58;;;;;;;11.50;6.05;;;;;;;-1.14;100.00;102237.97;5246410;28;20514;-78
2023/03/02 01:26:29;;;;;;;10.60;6.35;;;;;;;-1.22;100.00;102229.28;5248283;28;20041;-78
2023/03/02 01:29:00;;;;;;;11.20;6.35;;;;;;;-1.26;100.00;102223.19;5247515;28;20075;-78
2023/03/02 01:31:32;;;;;;;10.75;6.15;;;;;;;-1.23;100.00;102227.53;5279558;28;20386;-78
2023/03/02 01:34:04;;;;;;;10.65;6.07;;;;;;;-1.24;100.00;102231.91;5247292;28;20052;-78
2023/03/02 01:36:36;;;;;;;12.02;5.78;;;;;;;-1.22;100.00;102240.63;5246774;28;20104;-78
2023/03/02 01:39:07;;;;;;;11.10;6.03;;;;;;;-1.25;100.00;102224.06;5246818;28;20048;-78
2023/03/02 01:41:39;;;;;;;10.25;6.10;;;;;;;-1.23;100.00;102230.16;5247100;28;20410;-78
2023/03/02 01:44:35;;;;;;;11.70;6.63;;;;;;;-1.26;100.00;102222.34;5244285;28;20087;-78
2023/03/02 01:47:14;;;;;;;9.75;5.78;;;;;;;-1.27;100.00;102218.81;5250787;28;20057;-78
2023/03/02 01:49:57;;;;;;;12.50;6.45;;;;;;;-1.32;100.00;102209.25;5243121;28;20071;-78
2023/03/02 01:52:33;;;;;;;13.40;6.22;;;;;;;-1.31;100.00;102211.88;5250008;28;20059;-78
2023/03/02 01:55:09;;;;;;;10.50;5.65;;;;;;;-1.29;100.00;102219.72;5246062;28;20037;-78
2023/03/02 01:57:45;;;;;;;11.05;6.07;;;;;;;-1.29;100.00;102215.34;5248677;28;20055;-78
2023/03/02 02:00:21;;;;;;;10.63;6.53;;;;;;;-1.31;100.00;102213.63;5244747;28;20029;-78
2023/03/02 02:03:07;;;;;;;11.02;6.28;;;;;;;-1.27;100.00;102210.09;5247811;28;20033;-78
2023/03/02 02:05:41;;;;;;;12.55;6.93;;;;;;;-1.32;100.00;102211.88;5245710;28;20032;-78
2023/03/02 02:08:12;;;;;;;9.88;7.05;;;;;;;-1.29;100.00;102207.50;5244819;28;20033;-78
2023/03/02 02:10:44;;;;;;;10.25;6.55;;;;;;;-1.32;100.00;102204.91;5260575;28;20025;-78
2023/03/02 02:13:15;;;;;;;12.43;6.63;;;;;;;-1.30;100.00;102210.16;5246215;28;20033;-78
2023/03/02 02:15:46;;;;;;;12.13;6.70;;;;;;;-1.31;100.00;102213.63;5243791;28;20448;-79
2023/03/02 02:18:18;;;;;;;11.65;6.47;;;;;;;-1.29;100.00;102206.63;5248539;28;20025;-78
2023/03/02 02:20:52;;;;;;;13.57;6.78;;;;;;;-1.30;100.00;102208.38;5246770;28;20085;-78
2023/03/02 02:23:28;;;;;;;13.45;7.10;;;;;;;-1.32;100.00;102199.69;5244705;28;20145;-78
2023/03/02 02:26:20;;;;;;;12.60;7.25;;;;;;;-1.32;100.00;102202.28;5247123;28;20120;-78
2023/03/02 02:29:06;;;;;;;13.00;6.88;;;;;;;-1.33;100.00;102197.91;5244162;28;20025;-78
2023/03/02 02:32:00;;;;;;;12.48;7.45;;;;;;;-1.32;100.00;102199.69;5246388;28;20396;-78
2023/03/02 02:34:39;;;;;;;13.30;7.60;;;;;;;-1.35;100.00;102196.19;5247702;28;20612;-78
2023/03/02 02:37:15;;;;;;;12.45;7.82;;;;;;;-1.37;100.00;102196.19;5245176;28;20032;-78
2023/03/02 02:39:48;;;;;;;13.57;7.47;;;;;;;-1.40;100.00;102194.47;5244582;28;20025;-78
2023/03/02 02:42:26;;;;;;;14.30;7.90;;;;;;;-1.43;100.00;102175.28;5246702;28;20037;-78
2023/03/02 02:45:02;;;;;;;15.38;8.02;;;;;;;-1.42;100.00;102191.00;5241340;28;20032;-78
2023/03/02 02:47:34;;;;;;;12.60;7.75;;;;;;;-1.41;100.00;102189.25;5242180;28;20028;-78
2023/03/02 02:50:06;;;;;;;15.00;7.97;;;;;;;-1.46;100.00;102186.66;5247370;28;20443;-78
2023/03/02 02:52:39;;;;;;;15.18;7.95;;;;;;;-1.48;100.00;102183.16;5245326;28;20025;-78
2023/03/02 02:55:16;;;;;;;14.07;8.73;;;;;;;-1.51;100.00;102175.34;5244373;28;20032;-78
2023/03/02 02:57:50;;;;;;;16.65;8.82;;;;;;;-1.47;100.00;102181.44;5245216;28;20028;-79
2023/03/02 03:00:22;;;;;;;14.77;8.32;;;;;;;-1.49;100.00;102181.44;5246135;28;20037;-78
2023/03/02 03:03:06;;;;;;;18.95;9.88;;;;;;;-1.51;100.00;102185.81;5248321;28;20047;-79
2023/03/02 03:05:38;;;;;;;16.35;9.88;;;;;;;-1.51;100.00;102184.94;5243773;28;20438;-78
2023/03/02 03:08:29;;;;;;;17.80;9.93;;;;;;;-1.54;100.00;102177.09;5247349;28;20040;-78
2023/03/02 03:11:01;;;;;;;18.65;10.75;;;;;;;-1.58;100.00;102191.94;5246154;28;20118;-78
2023/03/02 03:13:33;;;;;;;19.13;11.02;;;;;;;-1.58;100.00;102189.31;5243832;28;20029;-78
2023/03/02 03:16:06;;;;;;;19.58;11.40;;;;;;;-1.61;100.00;102184.97;5239544;28;20052;-78
2023/03/02 03:18:38;;;;;;;21.83;11.55;;;;;;;-1.55;100.00;102188.44;5249552;28;20494;-78
2023/03/02 03:21:09;;;;;;;21.27;12.43;;;;;;;-1.62;100.00;102178.00;5248977;28;20037;-78
2023/03/02 03:23:41;;;;;;;23.90;12.80;;;;;;;-1.61;100.00;102184.09;5245658;28;20027;-78
2023/03/02 03:26:12;;;;;;;24.88;13.48;;;;;;;-1.65;100.00;102178.03;5244483;28;20045;-78
2023/03/02 03:28:43;;;;;;;28.48;14.95;;;;;;;-1.64;100.00;102163.19;5244387;28;20120;-78
2023/03/02 03:31:15;;;;;;;27.67;14.95;;;;;;;-1.63;100.00;102170.13;5246196;28;20413;-78
2023/03/02 03:33:48;;;;;;;25.73;14.60;;;;;;;-1.68;100.00;102171.94;5245123;28;20029;-78
2023/03/02 03:36:19;;;;;;;26.73;13.95;;;;;;;-1.66;100.00;102176.28;5244523;28;20025;-79
2023/03/02 03:38:50;;;;;;;27.58;15.82;;;;;;;-1.66;100.00;102172.78;5245686;28;20029;-79
2023/03/02 03:41:23;;;;;;;30.80;16.92;;;;;;;-1.66;100.00;102171.03;5244371;28;20044;-79
2023/03/02 03:43:54;;;;;;;33.83;17.53;;;;;;;-1.72;100.00;102171.06;5242261;28;20089;-79
2023/03/02 03:46:26;;;;;;;33.40;18.02;;;;;;;-1.68;100.00;102166.69;5246659;28;20786;-78
2023/03/02 03:48:58;;;;;;;37.63;19.23;;;;;;;-1.74;100.00;102172.81;5242927;28;20073;-79
2023/03/02 03:51:33;;;;;;;38.90;20.20;;;;;;;-1.72;100.00;102180.66;5246583;28;20032;-79
2023/03/02 03:54:07;;;;;;;38.75;19.85;;;;;;;-1.74;100.00;102178.06;5246616;28;20025;-79
2023/03/02 03:56:45;;;;;;;38.63;20.58;;;;;;;-1.68;100.00;102177.16;5243041;28;20020;-79
2023/03/02 03:59:19;;;;;;;38.72;20.10;;;;;;;-1.72;100.00;102178.91;5246684;28;20495;-79
2023/03/02 04:01:54;;;;;;;42.50;22.15;;;;;;;-1.72;100.00;102185.91;5245921;28;20036;-79
2023/03/02 04:04:31;;;;;;;39.10;21.77;;;;;;;-1.70;100.00;102186.75;5252759;28;20029;-79
2023/03/02 04:07:02;;;;;;;44.92;23.33;;;;;;;-1.72;100.00;102185.91;5247974;28;20037;-79
2023/03/02 04:09:36;;;;;;;45.00;22.90;;;;;;;-1.69;100.00;102175.41;5244525;28;20491;-79
2023/03/02 04:12:09;;;;;;;40.67;21.85;;;;;;;-1.74;100.00;102182.44;5250115;28;20033;-79
2023/03/02 04:14:40;;;;;;;53.28;23.52;;;;;;;-1.73;100.00;102182.41;5248358;28;20352;-79
2023/03/02 04:17:11;;;;;;;48.07;23.20;;;;;;;-1.72;100.00;102186.75;5247420;28;20045;-79
2023/03/02 04:19:44;;;;;;;46.83;23.15;;;;;;;-1.73;100.00;102174.53;5250531;28;20526;-79
2023/03/02 04:22:16;;;;;;;49.03;25.10;;;;;;;-1.70;100.00;102177.16;5251000;28;20078;-79
2023/03/02 04:24:48;;;;;;;46.78;23.95;;;;;;;-1.73;100.00;102179.78;5248553;28;20422;-79
2023/03/02 04:27:19;;;;;;;47.20;23.95;;;;;;;-1.73;100.00;102174.53;5250521;28;20135;-79
2023/03/02 04:29:51;;;;;;;45.05;23.45;;;;;;;-1.75;100.00;102178.06;5245235;28;20034;-79
2023/03/02 04:32:23;;;;;;;46.70;23.08;;;;;;;-1.73;100.00;102169.31;5249947;28;20720;-79
2023/03/02 04:34:54;;;;;;;45.03;24.20;;;;;;;-1.75;100.00;102181.53;5251087;28;20123;-79
2023/03/02 04:37:26;;;;;;;45.60;23.42;;;;;;;-1.80;100.00;102184.19;5244757;28;20041;-80
2023/03/02 04:39:57;;;;;;;45.10;22.00;;;;;;;-1.73;100.00;102182.41;5250966;28;20194;-79
2023/03/02 04:42:28;;;;;;;46.83;23.55;;;;;;;-1.79;100.00;102178.06;5250709;28;20104;-80
2023/03/02 04:45:00;;;;;;;41.17;22.67;;;;;;;-1.77;100.00;102171.06;5249278;28;20104;-80
2023/03/02 04:47:31;;;;;;;44.13;22.95;;;;;;;-1.81;100.00;102171.97;5242723;28;20053;-79
2023/03/02 04:50:02;;;;;;;45.17;23.60;;;;;;;-1.79;100.00;102174.56;5248246;28;20037;-79
2023/03/02 04:52:34;;;;;;;45.00;22.10;;;;;;;-1.80;100.00;102173.72;5246332;28;20021;-79
2023/03/02 04:55:06;;;;;;;46.63;22.92;;;;;;;-1.79;100.00;102177.19;5247982;28;20636;-79
2023/03/02 04:57:37;;;;;;;42.80;22.50;;;;;;;-1.80;100.00;102178.09;5248475;28;20033;-79
2023/03/02 05:00:09;;;;;;;44.70;21.90;;;;;;;-1.77;100.00;102170.22;5246882;28;20112;-79
2023/03/02 05:02:41;;;;;;;41.95;23.02;;;;;;;-1.77;100.00;102176.28;5248221;28;20021;-80
2023/03/02 05:05:16;;;;;;;40.13;21.60;;;;;;;-1.72;100.00;102178.06;5245119;28;20051;-80
2023/03/02 05:07:47;;;;;;;39.22;20.77;;;;;;;-1.80;100.00;102171.09;5249097;28;20454;-80
2023/03/02 05:10:20;;;;;;;42.70;21.65;;;;;;;-1.80;100.00;102173.72;5248162;28;20032;-80
2023/03/02 05:13:01;;;;;;;42.15;21.25;;;;;;;-1.79;100.00;102183.28;5246762;28;21131;-80
2023/03/02 05:15:38;;;;;;;43.22;21.30;;;;;;;-1.84;100.00;102178.94;5244903;28;20708;-79
2023/03/02 05:18:10;;;;;;;46.92;22.52;;;;;;;-1.83;100.00;102181.56;5249390;28;20029;-81
2023/03/02 05:20:42;;;;;;;43.17;21.20;;;;;;;-1.83;100.00;102188.53;5250816;28;20064;-80
2023/03/02 05:23:22;;;;;;;44.78;22.50;;;;;;;-1.79;100.00;102187.66;5246312;28;20027;-81
2023/03/02 05:25:54;;;;;;;40.15;20.95;;;;;;;-1.85;100.00;102185.94;5247205;28;20335;-80
2023/03/02 05:28:26;;;;;;;47.72;23.17;;;;;;;-1.88;100.00;102175.50;5253130;28;20513;-80
2023/03/02 05:30:57;;;;;;;46.00;23.45;;;;;;;-1.87;100.00;102177.22;5246744;28;20053;-80
2023/03/02 05:33:29;;;;;;;48.45;22.52;;;;;;;-1.86;100.00;102178.06;5246108;28;20032;-80
2023/03/02 05:36:00;;;;;;;46.92;23.58;;;;;;;-1.90;100.00;102176.34;5247519;28;20037;-80
2023/03/02 05:38:32;;;;;;;48.72;24.85;;;;;;;-1.89;100.00;102184.19;5245736;28;20685;-80
2023/03/02 05:41:03;;;;;;;55.28;25.27;;;;;;;-1.92;100.00;102178.97;5248423;28;20025;-80
2023/03/02 05:43:35;;;;;;;51.70;25.90;;;;;;;-1.92;100.00;102178.97;5248646;28;20349;-81
2023/03/02 05:46:06;;;;;;;47.60;24.58;;;;;;;-1.90;100.00;102181.59;5246218;28;20091;-80
2023/03/02 05:48:37;;;;;;;54.15;25.20;;;;;;;-1.91;100.00;102175.50;5249057;28;20044;-80
2023/03/02 05:51:09;;;;;;;53.17;26.92;;;;;;;-1.94;100.00;102180.72;5248590;28;20120;-80
2023/03/02 05:53:40;;;;;;;56.17;26.57;;;;;;;-1.88;100.00;102178.13;5243456;28;20098;-80
2023/03/02 05:56:11;;;;;;;50.03;24.67;;;;;;;-1.92;100.00;102183.34;5247422;28;20027;-81
2023/03/02 05:58:43;;;;;;;54.45;26.52;;;;;;;-1.94;100.00;102179.84;5241915;28;20056;-80
2023/03/02 06:01:14;;;;;;;51.97;24.70;;;;;;;-1.93;100.00;102184.22;5248836;28;20497;-81
2023/03/02 06:03:45;;;;;;;50.03;24.15;;;;;;;-1.96;100.00;102179.84;5239362;28;20070;-81
2023/03/02 06:06:16;;;;;;;52.88;24.92;;;;;;;-2.01;100.00;102182.50;5246897;28;20029;-81
2023/03/02 06:08:48;;;;;;;57.83;27.77;;;;;;;-1.99;100.00;102179.88;5245693;28;20025;-81
2023/03/02 06:11:19;;;;;;;54.85;26.92;;;;;;;-1.95;100.00;102173.75;5253722;28;20052;-81
2023/03/02 06:13:50;;;;;;;57.70;26.63;;;;;;;-1.99;100.00;102174.66;5247620;28;20090;-81
2023/03/02 06:16:22;;;;;;;56.57;26.03;;;;;;;-2.01;100.00;102173.78;5256623;28;20056;-81
2023/03/02 06:18:53;;;;;;;55.63;26.90;;;;;;;-2.03;100.00;102176.41;5247462;28;20035;-80
2023/03/02 06:21:24;;;;;;;59.77;28.87;;;;;;;-2.05;100.00;102175.53;5247544;28;20091;-81
2023/03/02 06:23:55;;;;;;;56.70;25.67;;;;;;;-2.03;100.00;102183.38;5251537;28;20056;-81
2023/03/02 06:26:27;;;;;;;58.70;27.30;;;;;;;-2.05;100.00;102183.38;5250840;28;20060;-80
2023/03/02 06:28:58;;;;;;;61.97;28.77;;;;;;;-2.04;100.00;102184.25;5243614;28;20577;-81
2023/03/02 06:31:30;;;;;;;60.38;27.98;;;;;;;-2.03;100.00;102186.88;5245326;28;20048;-80
2023/03/02 06:34:02;;;;;;;57.70;27.73;;;;;;;-2.01;100.00;102189.47;5248962;28;20383;-80
2023/03/02 06:36:33;;;;;;;61.72;27.55;;;;;;;-2.01;100.00;102195.56;5246087;28;20055;-80
2023/03/02 06:39:06;;;;;;;65.88;29.20;;;;;;;-2.02;100.00;102190.34;5250649;28;20388;-81
2023/03/02 06:41:37;;;;;;;64.78;28.92;;;;;;;-2.00;100.00;102193.81;5252473;28;20475;-80
2023/03/02 06:44:09;;;;;;;60.45;27.85;;;;;;;-1.98;100.00;102192.94;5247898;28;20078;-80
2023/03/02 06:46:41;;;;;;;60.45;28.63;;;;;;;-1.94;100.00;102201.66;5246632;28;20035;-80
2023/03/02 06:49:12;;;;;;;59.25;28.55;;;;;;;-1.93;100.00;102203.41;5257582;28;20036;-81
2023/03/02 06:51:43;;;;;;;64.30;28.85;;;;;;;-1.97;100.00;102204.28;5245017;28;20031;-81
2023/03/02 06:54:15;;;;;;;62.63;28.33;;;;;;;-1.94;100.00;102195.56;5251165;28;20029;-81
2023/03/02 06:56:46;;;;;;;59.22;28.60;;;;;;;-1.97;100.00;102206.91;5241442;28;20074;-80
2023/03/02 06:59:17;;;;;;;64.05;27.70;;;;;;;-1.93;100.00;102202.53;5247974;28;20474;-81
2023/03/02 07:01:49;;;;;;;57.43;27.60;;;;;;;-1.93;100.00;102206.03;5245828;28;20040;-81
2023/03/02 07:04:20;;;;;;;61.57;27.93;;;;;;;-1.94;100.00;102195.56;5250789;28;20556;-80
2023/03/02 07:06:52;;;;;;;58.20;27.35;;;;;;;-1.91;100.00;102206.88;5251890;28;20044;-80
2023/03/02 07:09:23;;;;;;;59.03;27.98;;;;;;;-1.89;100.00;102204.28;5252856;28;20028;-80
2023/03/02 07:11:54;;;;;;;58.00;27.83;;;;;;;-1.90;100.00;102208.59;5248760;28;20033;-81
2023/03/02 07:14:25;;;;;;;61.08;29.45;;;;;;;-1.84;100.00;102212.94;5238889;28;20040;-80
2023/03/02 07:16:58;;;;;;;59.03;26.17;;;;;;;-1.85;100.00;102219.06;5275442;28;20518;-80
2023/03/02 07:19:30;;;;;;;61.00;28.52;;;;;;;-1.82;100.00;102221.69;5243961;28;20040;-80
2023/03/02 07:22:01;;;;;;;63.38;27.83;;;;;;;-1.79;100.00;102214.69;5246349;28;20518;-80
2023/03/02 07:24:32;;;;;;;55.73;26.50;;;;;;;-1.75;100.00;102214.69;5250845;28;20083;-80
2023/03/02 07:27:04;;;;;;;60.20;27.20;;;;;;;-1.75;100.00;102223.41;5252089;28;20879;-80
2023/03/02 07:29:35;;;;;;;62.83;27.92;;;;;;;-1.70;100.00;102226.00;5252140;28;20079;-80
2023/03/02 07:32:06;;;;;;;57.08;26.70;;;;;;;-1.70;100.00;102212.94;5250132;28;20039;-80
2023/03/02 07:34:37;;;;;;;59.25;26.92;;;;;;;-1.61;100.00;102218.09;5247220;28;20029;-80
2023/03/02 07:37:09;;;;;;;56.67;26.90;;;;;;;-1.57;100.00;102217.25;5256141;28;20029;-80
2023/03/02 07:39:41;;;;;;;58.63;26.50;;;;;;;-1.52;100.00;102214.59;5257883;28;20114;-80
2023/03/02 07:42:12;;;;;;;58.15;26.23;;;;;;;-1.62;100.00;102198.94;5258303;28;20475;-80
2023/03/02 07:44:43;;;;;;;57.33;26.02;;;;;;;-1.43;100.00;102210.19;5249514;28;20030;-80
2023/03/02 07:47:15;;;;;;;60.80;25.92;;;;;;;-1.42;100.00;102214.56;5248081;28;20092;-80
2023/03/02 07:49:46;;;;;;;53.80;26.48;;;;;;;-1.34;100.00;102213.63;5238796;28;21649;-80
2023/03/02 07:52:17;;;;;;;55.38;25.90;;;;;;;-1.34;100.00;102213.63;5248133;28;20041;-81
2023/03/02 07:54:48;;;;;;;59.00;26.98;;;;;;;-1.31;100.00;102214.50;5251975;28;20091;-80
2023/03/02 07:57:20;;;;;;;52.25;25.52;;;;;;;-1.27;100.00;102215.34;5250544;28;20029;-80
2023/03/02 07:59:51;;;;;;;54.58;26.35;;;;;;;-1.21;100.00;102215.31;5253166;28;20036;-80
2023/03/02 08:02:24;;;;;;;56.63;25.25;;;;;;;-1.15;100.00;102214.41;5247269;28;20044;-80
2023/03/02 08:04:55;;;;;;;53.50;26.42;;;;;;;-1.14;100.00;102217.03;5243560;28;20041;-80
2023/03/02 08:07:26;;;;;;;54.85;27.02;;;;;;;-1.09;100.00;102212.63;5246110;28;20118;-80
2023/03/02 08:09:59;;;;;;;52.08;24.63;;;;;;;-1.05;100.00;102211.72;5249988;28;21503;-80
2023/03/02 08:12:31;;;;;;;51.75;24.23;;;;;;;-1.03;100.00;102212.59;5249115;28;20020;-80
2023/03/02 08:15:02;;;;;;;51.45;24.23;;;;;;;-0.95;100.00;102204.69;5246639;28;20039;-80
2023/03/02 08:17:33;;;;;;;50.67;25.83;;;;;;;-0.91;100.00;102209.00;5248501;28;20056;-80
2023/03/02 08:20:05;;;;;;;53.88;25.90;;;;;;;-0.84;100.00;102209.88;5251074;28;20564;-80
2023/03/02 08:22:37;;;;;;;50.05;23.50;;;;;;;-0.83;100.00;102215.06;5249536;28;20301;-81
2023/03/02 08:25:08;;;;;;;51.88;24.98;;;;;;;-0.77;100.00;102208.91;5247928;28;20037;-80
2023/03/02 08:27:39;;;;;;;50.92;24.88;;;;;;;-0.71;100.00;102214.13;5252166;28;20049;-80
2023/03/02 08:30:12;;;;;;;45.33;22.90;;;;;;;-0.64;100.00;102213.19;5252929;28;20048;-80
2023/03/02 08:32:43;;;;;;;47.10;22.80;;;;;;;-0.56;100.00;102209.63;5253598;28;20415;-80
2023/03/02 08:35:15;;;;;;;49.38;23.83;;;;;;;-0.54;100.00;102215.72;5253901;28;20036;-80
2023/03/02 08:37:46;;;;;;;49.75;22.23;;;;;;;-0.51;100.00;102213.09;5249094;28;20103;-80
2023/03/02 08:40:17;;;;;;;42.30;21.50;;;;;;;-0.45;100.00;102210.41;5249759;28;20037;-80
2023/03/02 08:42:55;;;;;;;48.03;21.75;;;;;;;-0.39;100.00;102215.59;5253301;28;20403;-80
2023/03/02 08:45:27;;;;;;;44.72;21.98;;;;;;;-0.35;100.00;102217.31;5251182;28;20021;-80
2023/03/02 08:47:58;;;;;;;43.35;21.38;;;;;;;-0.30;100.00;102215.53;5249673;28;20039;-80
2023/03/02 08:50:29;;;;;;;42.95;19.80;;;;;;;-0.17;100.00;102211.03;5246089;28;20033;-80
2023/03/02 08:53:00;;;;;;;42.22;21.00;;;;;;;-0.18;100.00;102211.06;5248702;28;20037;-80
2023/03/02 08:55:35;;;;;;;41.03;20.80;;;;;;;-0.13;100.00;102211.88;5249941;28;20079;-80
2023/03/02 08:58:06;;;;;;;;;;;;;;;-0.02;100.00;102210.00;5254588;28;20033;-80
2023/03/02 09:00:37;;;;;;;44.13;18.92;;;;;;;0.11;100.00;102200.25;5250335;28;19975;-80
2023/03/02 09:03:09;;;;;;;37.83;19.33;;;;;;;0.20;100.00;102202.78;5247830;28;20041;-80
2023/03/02 09:05:40;;;;;;;38.80;18.75;;;;;;;0.25;100.00;102203.59;5251725;28;20033;-80
2023/03/02 09:08:12;;;;;;;35.17;17.70;;;;;;;0.34;100.00;102198.22;5248682;28;20464;-81
2023/03/02 09:10:43;;;;;;;34.30;17.60;;;;;;;0.41;100.00;102183.28;5253372;28;20055;-80
2023/03/02 09:13:15;;;;;;;31.58;16.67;;;;;;;0.54;100.00;102191.88;5250781;28;20481;-79
2023/03/02 09:15:46;;;;;;;34.45;16.52;;;;;;;0.61;100.00;102187.38;5253231;28;20029;-79
2023/03/02 09:18:17;;;;;;;34.75;16.60;;;;;;;0.69;100.00;102189.03;5249815;28;20498;-80
2023/03/02 09:20:52;;;;;;;36.58;18.33;;;;;;;0.76;100.00;102189.81;5250666;28;20502;-79
2023/03/02 09:23:25;;;;;;;33.13;16.27;;;;;;;0.88;100.00;102191.38;5248276;28;20483;-79
2023/03/02 09:25:56;;;;;;;34.53;17.20;;;;;;;0.93;100.00;102187.81;5248798;28;20729;-79
2023/03/02 09:28:27;;;;;;;33.53;16.45;;;;;;;1.01;100.00;102192.09;5253399;28;20119;-79
2023/03/02 09:31:02;;;;;;;28.58;15.63;;;;;;;1.08;100.00;102194.59;5252716;28;20044;-79
2023/03/02 09:33:34;;;;;;;29.05;15.73;;;;;;;1.18;100.00;102192.69;5249320;28;20033;-79
2023/03/02 09:36:07;;;;;;;29.90;15.55;;;;;;;1.25;100.00;102188.22;5250928;28;20029;-78
2023/03/02 09:38:38;;;;;;;32.00;17.13;;;;;;;1.36;100.00;102194.16;5247759;28;20090;-78
2023/03/02 09:41:36;;;;;;;32.08;16.65;;;;;;;1.47;100.00;102192.22;5250443;28;20379;-78
2023/03/02 09:44:36;;;;;;;32.75;16.30;;;;;;;1.57;100.00;102190.28;5252319;28;20040;-78
2023/03/02 09:47:52;;;;;;;31.42;16.63;;;;;;;1.67;100.00;102188.38;5249125;28;20116;-78
2023/03/02 09:50:33;;;;;;;29.80;14.57;;;;;;;1.77;100.00;102182.06;5245384;28;20760;-78
2023/03/02 09:53:11;;;;;;;26.80;15.13;;;;;;;1.90;100.00;102180.09;5252113;28;20484;-78
2023/03/02 09:55:53;;;;;;;29.60;15.48;;;;;;;1.99;100.00;102185.16;5248487;28;20025;-78
2023/03/02 09:58:33;;;;;;;26.35;14.85;;;;;;;2.04;100.00;102183.31;5243248;28;20087;-77
2023/03/02 10:01:12;;;;;;;27.45;15.73;;;;;;;2.20;100.00;102183.84;5250091;28;20442;-77
2023/03/02 10:03:56;;;;;;;26.55;13.95;;;;;;;2.28;100.00;102171.44;5248816;28;20028;-77
2023/03/02 10:06:28;;;;;;;25.38;13.93;;;;;;;2.36;100.00;102184.44;5251417;28;20036;-77
2023/03/02 10:09:00;;;;;;;24.00;13.30;;;;;;;2.48;100.00;102173.63;5244944;28;20032;-77
2023/03/02 10:12:07;;;;;;;24.77;13.73;;;;;;;2.57;100.00;102174.31;5250773;28;20453;-77
2023/03/02 10:14:47;;;;;;;26.08;13.32;;;;;;;2.70;100.00;102175.78;5247007;28;20036;-77
2023/03/02 10:17:32;;;;;;;27.55;13.18;;;;;;;2.75;100.00;102173.94;5251435;28;20110;-77
2023/03/02 10:20:15;;;;;;;;;;;;;;;2.83;100.00;102173.75;5240351;28;20033;-77
2023/03/02 10:22:51;;;;;;;23.95;12.60;;;;;;;2.96;100.00;102177.84;5239632;28;19951;-76
2023/03/02 10:25:36;;;;;;;23.30;13.20;;;;;;;3.01;100.00;102177.72;5245229;28;20728;-76
2023/03/02 10:28:24;;;;;;;22.60;12.35;;;;;;;3.06;100.00;102174.09;5242446;28;20059;-76
2023/03/02 10:31:08;;;;;;;22.13;11.75;;;;;;;3.18;100.00;102177.34;5244852;28;20025;-76
2023/03/02 10:33:40;;;;;;;20.50;11.77;;;;;;;3.17;100.00;102180.91;5244614;28;20044;-76
2023/03/02 10:36:28;;;;;;;21.83;12.35;;;;;;;3.24;100.00;102170.16;5238933;28;20044;-76
2023/03/02 10:38:59;;;;;;;18.20;10.48;;;;;;;3.31;98.20;102171.72;5240032;28;20068;-76
2023/03/02 10:41:39;;;;;;;19.35;11.23;;;;;;;3.38;96.16;102166.31;5240655;28;20457;-76
2023/03/02 10:44:16;;;;;;;20.33;11.10;;;;;;;3.46;97.37;102175.75;5238273;28;20029;-76
2023/03/02 10:46:48;;;;;;;21.17;11.73;;;;;;;3.52;93.63;102166.81;5251175;28;20025;-76
2023/03/02 10:49:31;;;;;;;22.20;11.45;;;;;;;3.51;97.31;102162.47;5249302;28;20045;-76
2023/03/02 10:52:14;;;;;;;20.80;11.27;;;;;;;3.57;93.78;102161.41;5251208;28;20033;-76
2023/03/02 10:54:46;;;;;;;19.83;11.48;;;;;;;3.66;94.22;102155.88;5251216;28;20028;-76
2023/03/02 10:57:41;;;;;;;19.83;12.52;;;;;;;3.68;95.86;102157.59;5251495;28;20566;-76
2023/03/02 11:00:21;;;;;;;21.00;11.73;;;;;;;3.79;90.12;102162.56;5248806;28;20028;-76
2023/03/02 11:02:55;;;;;;;17.95;10.90;;;;;;;3.90;92.03;102163.16;5249609;28;20028;-76
2023/03/02 11:05:38;;;;;;;18.90;10.32;;;;;;;3.99;91.25;102159.41;5247306;28;20052;-76
2023/03/02 11:08:16;;;;;;;20.20;11.32;;;;;;;4.05;89.35;102150.44;5244674;28;20071;-75
2023/03/02 11:10:59;;;;;;;17.98;10.90;;;;;;;4.10;89.53;102157.34;5250316;28;20021;-76
2023/03/02 11:13:36;;;;;;;18.40;10.77;;;;;;;4.15;90.04;102149.25;5248386;28;20064;-76
2023/03/02 11:16:16;;;;;;;18.88;11.55;;;;;;;4.18;88.54;102149.19;5245247;28;20108;-76
2023/03/02 11:19:02;;;;;;;20.83;11.63;;;;;;;4.24;89.43;102148.16;5249026;28;20037;-76
2023/03/02 11:21:42;;;;;;;21.08;11.90;;;;;;;4.36;87.46;102146.91;5248452;28;20033;-76
2023/03/02 11:24:20;;;;;;;22.60;11.18;;;;;;;4.43;88.57;102146.69;5242760;28;20036;-76
2023/03/02 11:27:12;;;;;;;22.23;11.90;;;;;;;4.52;86.36;102140.25;5252435;28;20053;-76
2023/03/02 11:29:48;;;;;;;20.08;11.32;;;;;;;4.60;88.31;102145.31;5248984;28;20036;-76
2023/03/02 11:33:08;;;;;;;22.02;12.15;;;;;;;4.65;88.88;102140.75;5250921;28;20044;-75
2023/03/02 11:35:51;;;;;;;21.65;12.35;;;;;;;4.70;86.84;102130.91;5238145;28;20103;-76
2023/03/02 11:38:35;;;;;;;26.05;12.50;;;;;;;4.79;85.18;102129.72;5247253;28;20024;-75